sensor_id;sensor_type;location;lat;lon;timestamp;temperature;humidity
13482;DHT22;6813;60.352;15.746;2023-07-09T00:00:15;18.20;99.90
13482;DHT22;6813;60.352;15.746;2023-07-09T00:02:41;18.20;99.90
13482;DHT22;6813;60.352;15.746;2023-07-09T00:05:12;18.20;99.90
13482;DHT22;6813;60.352;15.746;2023-07-09T00:07:38;18.20;99.90
13482;DHT22;6813;60.352;15.746;2023-07-09T00:10:16;18.20;99.90
13482;DHT22;6813;60.352;15.746;2023-07-09T00:12:43;18.20;99.90
13482;DHT22;6813;60.352;15.746;2023-07-09T00:15:10;18.10;99.90
13482;DHT22;6813;60.352;15.746;2023-07-09T00:17:36;18.10;99.90
13482;DHT22;6813;60.352;15.746;2023-07-09T00:20:03;18.00;99.90
13482;DHT22;6813;60.352;15.746;2023-07-09T00:22:40;18.00;99.90
13482;DHT22;6813;60.352;15.746;2023-07-09T00:25:10;18.00;99.90
13482;DHT22;6813;60.352;15.746;2023-07-09T00:27:41;17.90;99.90
13482;DHT22;6813;60.352;15.746;2023-07-09T00:30:15;17.90;99.90
13482;DHT22;6813;60.352;15.746;2023-07-09T00:32:42;17.80;99.90
13482;DHT22;6813;60.352;15.746;2023-07-09T00:35:09;17.70;99.90
13482;DHT22;6813;60.352;15.746;2023-07-09T00:37:35;17.60;99.90
13482;DHT22;6813;60.352;15.746;2023-07-09T00:40:01;17.50;99.90
13482;DHT22;6813;60.352;15.746;2023-07-09T00:42:26;17.40;99.90
13482;DHT22;6813;60.352;15.746;2023-07-09T00:44:54;17.40;99.90
13482;DHT22;6813;60.352;15.746;2023-07-09T00:50:54;17.40;99.90
13482;DHT22;6813;60.352;15.746;2023-07-09T00:52:58;17.30;99.90
13482;DHT22;6813;60.352;15.746;2023-07-09T00:55:28;17.30;99.90
13482;DHT22;6813;60.352;15.746;2023-07-09T00:57:59;17.30;99.90
13482;DHT22;6813;60.352;15.746;2023-07-09T01:00:36;17.30;99.90
13482;DHT22;6813;60.352;15.746;2023-07-09T01:03:20;17.30;99.90
13482;DHT22;6813;60.352;15.746;2023-07-09T01:05:48;17.20;99.90
13482;DHT22;6813;60.352;15.746;2023-07-09T01:08:21;17.10;99.90
13482;DHT22;6813;60.352;15.746;2023-07-09T01:10:46;17.10;99.90
13482;DHT22;6813;60.352;15.746;2023-07-09T01:13:12;17.10;99.90
13482;DHT22;6813;60.352;15.746;2023-07-09T01:15:38;17.10;99.90
13482;DHT22;6813;60.352;15.746;2023-07-09T01:18:04;17.10;99.90
13482;DHT22;6813;60.352;15.746;2023-07-09T01:20:30;17.00;99.90
13482;DHT22;6813;60.352;15.746;2023-07-09T01:22:56;17.00;99.90
13482;DHT22;6813;60.352;15.746;2023-07-09T01:25:23;17.00;99.90
13482;DHT22;6813;60.352;15.746;2023-07-09T01:27:50;16.80;99.90
13482;DHT22;6813;60.352;15.746;2023-07-09T01:30:20;16.70;99.90
13482;DHT22;6813;60.352;15.746;2023-07-09T01:32:50;16.50;99.90
13482;DHT22;6813;60.352;15.746;2023-07-09T01:35:19;16.30;99.90
13482;DHT22;6813;60.352;15.746;2023-07-09T01:37:45;15.90;99.90
13482;DHT22;6813;60.352;15.746;2023-07-09T01:40:14;15.70;99.90
13482;DHT22;6813;60.352;15.746;2023-07-09T01:42:40;15.70;99.90
13482;DHT22;6813;60.352;15.746;2023-07-09T01:45:07;15.80;99.90
13482;DHT22;6813;60.352;15.746;2023-07-09T01:47:36;15.80;99.90
13482;DHT22;6813;60.352;15.746;2023-07-09T01:50:02;15.90;99.90
13482;DHT22;6813;60.352;15.746;2023-07-09T01:52:29;16.00;99.90
13482;DHT22;6813;60.352;15.746;2023-07-09T01:54:56;16.00;99.90
13482;DHT22;6813;60.352;15.746;2023-07-09T01:57:25;16.00;99.90
13482;DHT22;6813;60.352;15.746;2023-07-09T01:59:53;16.00;99.90
13482;DHT22;6813;60.352;15.746;2023-07-09T02:02:20;16.00;99.90
13482;DHT22;6813;60.352;15.746;2023-07-09T02:04:47;16.00;99.90
13482;DHT22;6813;60.352;15.746;2023-07-09T02:07:14;16.00;99.90
13482;DHT22;6813;60.352;15.746;2023-07-09T02:09:40;15.90;99.90
13482;DHT22;6813;60.352;15.746;2023-07-09T02:12:06;15.80;99.90
13482;DHT22;6813;60.352;15.746;2023-07-09T02:14:32;15.80;99.90
13482;DHT22;6813;60.352;15.746;2023-07-09T02:16:57;15.80;99.90
13482;DHT22;6813;60.352;15.746;2023-07-09T02:19:23;15.90;99.90
13482;DHT22;6813;60.352;15.746;2023-07-09T02:21:49;16.00;99.90
13482;DHT22;6813;60.352;15.746;2023-07-09T02:24:14;16.10;99.90
13482;DHT22;6813;60.352;15.746;2023-07-09T02:26:40;16.10;99.90
13482;DHT22;6813;60.352;15.746;2023-07-09T02:29:06;16.10;99.90
13482;DHT22;6813;60.352;15.746;2023-07-09T02:31:32;16.10;99.90
13482;DHT22;6813;60.352;15.746;2023-07-09T02:33:59;16.10;99.90
13482;DHT22;6813;60.352;15.746;2023-07-09T02:36:25;16.20;99.90
13482;DHT22;6813;60.352;15.746;2023-07-09T02:38:51;16.20;99.90
13482;DHT22;6813;60.352;15.746;2023-07-09T02:41:17;16.20;99.90
13482;DHT22;6813;60.352;15.746;2023-07-09T02:43:43;16.10;99.90
13482;DHT22;6813;60.352;15.746;2023-07-09T02:46:08;16.10;99.90
13482;DHT22;6813;60.352;15.746;2023-07-09T02:48:34;16.10;99.90
13482;DHT22;6813;60.352;15.746;2023-07-09T02:51:00;16.10;99.90
13482;DHT22;6813;60.352;15.746;2023-07-09T02:53:27;16.00;99.90
13482;DHT22;6813;60.352;15.746;2023-07-09T02:55:52;16.00;99.90
13482;DHT22;6813;60.352;15.746;2023-07-09T02:58:18;16.00;99.90
13482;DHT22;6813;60.352;15.746;2023-07-09T03:00:44;16.00;99.90
13482;DHT22;6813;60.352;15.746;2023-07-09T03:03:17;16.10;99.90
13482;DHT22;6813;60.352;15.746;2023-07-09T03:05:47;16.00;99.90
13482;DHT22;6813;60.352;15.746;2023-07-09T03:08:13;16.10;99.90
13482;DHT22;6813;60.352;15.746;2023-07-09T03:10:41;16.20;99.90
13482;DHT22;6813;60.352;15.746;2023-07-09T03:13:07;16.20;99.90
13482;DHT22;6813;60.352;15.746;2023-07-09T03:15:33;16.40;99.90
13482;DHT22;6813;60.352;15.746;2023-07-09T03:17:58;16.50;99.90
13482;DHT22;6813;60.352;15.746;2023-07-09T03:20:24;16.60;99.90
13482;DHT22;6813;60.352;15.746;2023-07-09T03:22:50;16.70;99.90
13482;DHT22;6813;60.352;15.746;2023-07-09T03:25:16;16.80;99.90
13482;DHT22;6813;60.352;15.746;2023-07-09T03:27:42;16.90;99.90
13482;DHT22;6813;60.352;15.746;2023-07-09T03:30:08;16.90;99.90
13482;DHT22;6813;60.352;15.746;2023-07-09T03:32:34;16.90;99.90
13482;DHT22;6813;60.352;15.746;2023-07-09T03:34:59;17.10;99.90
13482;DHT22;6813;60.352;15.746;2023-07-09T03:37:25;17.30;99.90
13482;DHT22;6813;60.352;15.746;2023-07-09T03:39:51;17.40;99.90
13482;DHT22;6813;60.352;15.746;2023-07-09T03:42:16;17.60;99.90
13482;DHT22;6813;60.352;15.746;2023-07-09T03:44:42;17.80;99.90
13482;DHT22;6813;60.352;15.746;2023-07-09T03:47:08;17.90;99.90
13482;DHT22;6813;60.352;15.746;2023-07-09T03:49:36;18.10;99.90
13482;DHT22;6813;60.352;15.746;2023-07-09T03:52:01;18.30;99.90
13482;DHT22;6813;60.352;15.746;2023-07-09T03:54:28;18.40;99.90
13482;DHT22;6813;60.352;15.746;2023-07-09T03:56:53;18.60;99.90
13482;DHT22;6813;60.352;15.746;2023-07-09T03:59:19;18.70;99.90
13482;DHT22;6813;60.352;15.746;2023-07-09T04:01:45;18.90;99.90
13482;DHT22;6813;60.352;15.746;2023-07-09T04:04:14;19.10;99.90
13482;DHT22;6813;60.352;15.746;2023-07-09T04:06:40;19.20;99.90
13482;DHT22;6813;60.352;15.746;2023-07-09T04:09:06;19.30;99.90
13482;DHT22;6813;60.352;15.746;2023-07-09T04:11:32;19.50;99.90
13482;DHT22;6813;60.352;15.746;2023-07-09T04:13:58;19.70;99.90
13482;DHT22;6813;60.352;15.746;2023-07-09T04:16:24;19.80;99.90
13482;DHT22;6813;60.352;15.746;2023-07-09T04:18:50;20.00;99.90
13482;DHT22;6813;60.352;15.746;2023-07-09T04:21:15;20.20;99.90
13482;DHT22;6813;60.352;15.746;2023-07-09T04:23:41;20.40;99.90
13482;DHT22;6813;60.352;15.746;2023-07-09T04:26:12;20.60;99.90
13482;DHT22;6813;60.352;15.746;2023-07-09T04:28:38;20.70;99.90
13482;DHT22;6813;60.352;15.746;2023-07-09T04:31:03;20.90;99.90
13482;DHT22;6813;60.352;15.746;2023-07-09T04:33:29;21.00;99.90
13482;DHT22;6813;60.352;15.746;2023-07-09T04:35:55;21.20;99.90
13482;DHT22;6813;60.352;15.746;2023-07-09T04:38:21;21.40;99.90
13482;DHT22;6813;60.352;15.746;2023-07-09T04:40:48;21.60;99.90
13482;DHT22;6813;60.352;15.746;2023-07-09T04:43:14;21.90;99.90
13482;DHT22;6813;60.352;15.746;2023-07-09T04:45:40;22.10;99.90
13482;DHT22;6813;60.352;15.746;2023-07-09T04:48:06;22.30;99.90
13482;DHT22;6813;60.352;15.746;2023-07-09T04:50:32;22.50;99.90
13482;DHT22;6813;60.352;15.746;2023-07-09T04:52:59;22.70;99.90
13482;DHT22;6813;60.352;15.746;2023-07-09T04:55:25;22.90;99.90
13482;DHT22;6813;60.352;15.746;2023-07-09T04:57:52;23.00;99.90
13482;DHT22;6813;60.352;15.746;2023-07-09T05:00:18;23.20;99.90
13482;DHT22;6813;60.352;15.746;2023-07-09T05:02:44;23.40;99.90
13482;DHT22;6813;60.352;15.746;2023-07-09T05:05:09;23.50;99.90
13482;DHT22;6813;60.352;15.746;2023-07-09T05:07:37;23.60;99.90
13482;DHT22;6813;60.352;15.746;2023-07-09T05:10:03;23.70;99.90
13482;DHT22;6813;60.352;15.746;2023-07-09T05:12:29;23.90;99.80
13482;DHT22;6813;60.352;15.746;2023-07-09T05:14:55;24.00;98.70
13482;DHT22;6813;60.352;15.746;2023-07-09T05:17:22;24.10;98.60
13482;DHT22;6813;60.352;15.746;2023-07-09T05:19:49;24.20;98.40
13482;DHT22;6813;60.352;15.746;2023-07-09T05:22:15;24.20;98.10
13482;DHT22;6813;60.352;15.746;2023-07-09T05:24:41;24.30;98.50
13482;DHT22;6813;60.352;15.746;2023-07-09T05:27:07;24.50;98.20
13482;DHT22;6813;60.352;15.746;2023-07-09T05:29:32;24.70;97.60
13482;DHT22;6813;60.352;15.746;2023-07-09T05:31:58;24.90;97.40
13482;DHT22;6813;60.352;15.746;2023-07-09T05:34:24;25.10;96.80
13482;DHT22;6813;60.352;15.746;2023-07-09T05:36:49;25.30;96.80
13482;DHT22;6813;60.352;15.746;2023-07-09T05:39:15;25.50;96.40
13482;DHT22;6813;60.352;15.746;2023-07-09T05:41:41;25.70;95.60
13482;DHT22;6813;60.352;15.746;2023-07-09T05:44:07;25.80;95.50
13482;DHT22;6813;60.352;15.746;2023-07-09T05:46:36;25.90;95.50
13482;DHT22;6813;60.352;15.746;2023-07-09T05:49:04;26.00;95.00
13482;DHT22;6813;60.352;15.746;2023-07-09T05:51:30;26.00;94.50
13482;DHT22;6813;60.352;15.746;2023-07-09T05:53:56;26.10;94.30
13482;DHT22;6813;60.352;15.746;2023-07-09T05:56:22;26.20;94.70
13482;DHT22;6813;60.352;15.746;2023-07-09T05:58:48;26.20;94.80
13482;DHT22;6813;60.352;15.746;2023-07-09T06:01:13;26.40;94.50
13482;DHT22;6813;60.352;15.746;2023-07-09T06:03:39;26.70;94.40
13482;DHT22;6813;60.352;15.746;2023-07-09T06:06:05;26.90;94.30
13482;DHT22;6813;60.352;15.746;2023-07-09T06:08:32;27.00;93.00
13482;DHT22;6813;60.352;15.746;2023-07-09T06:11:02;27.10;93.30
13482;DHT22;6813;60.352;15.746;2023-07-09T06:13:29;27.30;92.50
13482;DHT22;6813;60.352;15.746;2023-07-09T06:15:58;27.30;91.60
13482;DHT22;6813;60.352;15.746;2023-07-09T06:18:25;27.40;93.40
13482;DHT22;6813;60.352;15.746;2023-07-09T06:20:56;27.50;92.50
13482;DHT22;6813;60.352;15.746;2023-07-09T06:23:22;27.30;92.10
13482;DHT22;6813;60.352;15.746;2023-07-09T06:25:48;27.40;92.60
13482;DHT22;6813;60.352;15.746;2023-07-09T06:28:19;27.50;91.80
13482;DHT22;6813;60.352;15.746;2023-07-09T06:30:45;27.60;91.60
13482;DHT22;6813;60.352;15.746;2023-07-09T06:33:13;27.80;91.50
13482;DHT22;6813;60.352;15.746;2023-07-09T06:35:45;28.10;91.50
13482;DHT22;6813;60.352;15.746;2023-07-09T06:38:11;28.30;90.80
13482;DHT22;6813;60.352;15.746;2023-07-09T06:40:36;28.30;90.30
13482;DHT22;6813;60.352;15.746;2023-07-09T06:43:02;28.50;90.70
13482;DHT22;6813;60.352;15.746;2023-07-09T06:45:28;28.60;89.90
13482;DHT22;6813;60.352;15.746;2023-07-09T06:47:54;28.60;90.20
13482;DHT22;6813;60.352;15.746;2023-07-09T06:50:20;28.80;89.90
13482;DHT22;6813;60.352;15.746;2023-07-09T06:52:46;28.90;86.90
13482;DHT22;6813;60.352;15.746;2023-07-09T06:55:12;28.90;87.90
13482;DHT22;6813;60.352;15.746;2023-07-09T06:57:37;28.90;87.60
13482;DHT22;6813;60.352;15.746;2023-07-09T07:00:04;29.10;86.70
13482;DHT22;6813;60.352;15.746;2023-07-09T07:02:30;29.20;87.00
13482;DHT22;6813;60.352;15.746;2023-07-09T07:04:55;29.30;85.60
13482;DHT22;6813;60.352;15.746;2023-07-09T07:07:21;29.40;85.20
13482;DHT22;6813;60.352;15.746;2023-07-09T07:09:47;29.50;84.80
13482;DHT22;6813;60.352;15.746;2023-07-09T07:12:23;29.60;84.80
13482;DHT22;6813;60.352;15.746;2023-07-09T07:14:49;29.60;84.30
13482;DHT22;6813;60.352;15.746;2023-07-09T07:17:15;29.60;83.30
13482;DHT22;6813;60.352;15.746;2023-07-09T07:19:41;29.70;82.90
13482;DHT22;6813;60.352;15.746;2023-07-09T07:22:06;29.80;83.00
13482;DHT22;6813;60.352;15.746;2023-07-09T07:24:32;29.80;84.10
13482;DHT22;6813;60.352;15.746;2023-07-09T07:26:58;29.90;83.90
13482;DHT22;6813;60.352;15.746;2023-07-09T07:29:24;30.00;83.10
13482;DHT22;6813;60.352;15.746;2023-07-09T07:31:50;30.00;81.50
13482;DHT22;6813;60.352;15.746;2023-07-09T07:34:15;29.90;80.30
13482;DHT22;6813;60.352;15.746;2023-07-09T07:36:41;29.80;80.80
13482;DHT22;6813;60.352;15.746;2023-07-09T07:39:07;29.90;80.60
13482;DHT22;6813;60.352;15.746;2023-07-09T07:41:32;30.10;80.30
13482;DHT22;6813;60.352;15.746;2023-07-09T07:43:58;30.20;79.70
13482;DHT22;6813;60.352;15.746;2023-07-09T07:46:24;30.30;79.00
13482;DHT22;6813;60.352;15.746;2023-07-09T07:48:49;30.30;79.00
13482;DHT22;6813;60.352;15.746;2023-07-09T07:51:15;30.30;79.00
13482;DHT22;6813;60.352;15.746;2023-07-09T07:53:41;30.40;77.60
13482;DHT22;6813;60.352;15.746;2023-07-09T07:56:08;30.60;80.80
13482;DHT22;6813;60.352;15.746;2023-07-09T07:58:34;30.50;77.30
13482;DHT22;6813;60.352;15.746;2023-07-09T08:01:00;30.30;75.70
13482;DHT22;6813;60.352;15.746;2023-07-09T08:03:26;30.20;77.70
13482;DHT22;6813;60.352;15.746;2023-07-09T08:05:52;30.50;78.40
13482;DHT22;6813;60.352;15.746;2023-07-09T08:08:18;30.70;78.50
13482;DHT22;6813;60.352;15.746;2023-07-09T08:10:44;30.90;75.10
13482;DHT22;6813;60.352;15.746;2023-07-09T08:13:10;31.10;75.90
13482;DHT22;6813;60.352;15.746;2023-07-09T08:15:35;31.00;75.40
13482;DHT22;6813;60.352;15.746;2023-07-09T08:18:01;30.30;74.50
13482;DHT22;6813;60.352;15.746;2023-07-09T08:20:27;29.10;78.70
13482;DHT22;6813;60.352;15.746;2023-07-09T08:22:52;28.90;82.00
13482;DHT22;6813;60.352;15.746;2023-07-09T08:25:18;29.30;81.40
13482;DHT22;6813;60.352;15.746;2023-07-09T08:27:44;29.60;77.90
13482;DHT22;6813;60.352;15.746;2023-07-09T08:30:10;30.10;78.10
13482;DHT22;6813;60.352;15.746;2023-07-09T08:32:36;30.20;76.70
13482;DHT22;6813;60.352;15.746;2023-07-09T08:35:01;30.50;75.90
13482;DHT22;6813;60.352;15.746;2023-07-09T08:37:27;30.70;74.90
13482;DHT22;6813;60.352;15.746;2023-07-09T08:39:53;30.50;75.00
13482;DHT22;6813;60.352;15.746;2023-07-09T08:42:43;30.60;75.30
13482;DHT22;6813;60.352;15.746;2023-07-09T08:48:33;30.90;72.40
13482;DHT22;6813;60.352;15.746;2023-07-09T08:51:04;31.00;72.30
13482;DHT22;6813;60.352;15.746;2023-07-09T08:53:38;31.30;70.80
13482;DHT22;6813;60.352;15.746;2023-07-09T08:56:09;31.40;71.30
13482;DHT22;6813;60.352;15.746;2023-07-09T08:58:37;31.40;69.30
13482;DHT22;6813;60.352;15.746;2023-07-09T09:01:06;31.40;70.00
13482;DHT22;6813;60.352;15.746;2023-07-09T09:03:41;31.30;68.10
13482;DHT22;6813;60.352;15.746;2023-07-09T09:06:13;31.30;68.50
13482;DHT22;6813;60.352;15.746;2023-07-09T09:11:39;31.40;66.60
13482;DHT22;6813;60.352;15.746;2023-07-09T09:16:43;31.30;68.40
13482;DHT22;6813;60.352;15.746;2023-07-09T09:19:29;31.10;64.60
13482;DHT22;6813;60.352;15.746;2023-07-09T09:22:05;30.80;70.60
13482;DHT22;6813;60.352;15.746;2023-07-09T09:27:23;31.00;68.10
13482;DHT22;6813;60.352;15.746;2023-07-09T09:29:49;31.10;67.40
13482;DHT22;6813;60.352;15.746;2023-07-09T09:32:28;31.00;69.50
13482;DHT22;6813;60.352;15.746;2023-07-09T09:34:55;31.00;68.90
13482;DHT22;6813;60.352;15.746;2023-07-09T09:37:30;30.40;70.50
13482;DHT22;6813;60.352;15.746;2023-07-09T09:39:56;29.70;71.40
13482;DHT22;6813;60.352;15.746;2023-07-09T09:42:24;29.60;72.60
13482;DHT22;6813;60.352;15.746;2023-07-09T09:44:53;29.80;73.10
13482;DHT22;6813;60.352;15.746;2023-07-09T09:47:19;29.90;72.40
13482;DHT22;6813;60.352;15.746;2023-07-09T09:49:45;29.50;70.20
13482;DHT22;6813;60.352;15.746;2023-07-09T09:52:16;28.90;74.60
13482;DHT22;6813;60.352;15.746;2023-07-09T09:54:52;29.20;75.10
13482;DHT22;6813;60.352;15.746;2023-07-09T09:57:22;29.50;73.90
13482;DHT22;6813;60.352;15.746;2023-07-09T09:59:48;29.60;73.40
13482;DHT22;6813;60.352;15.746;2023-07-09T10:02:19;29.40;74.00
13482;DHT22;6813;60.352;15.746;2023-07-09T10:04:46;29.50;76.50
13482;DHT22;6813;60.352;15.746;2023-07-09T10:07:27;29.40;73.30
13482;DHT22;6813;60.352;15.746;2023-07-09T10:09:55;29.70;73.20
13482;DHT22;6813;60.352;15.746;2023-07-09T10:18:14;30.30;70.60
13482;DHT22;6813;60.352;15.746;2023-07-09T10:20:50;30.40;68.50
13482;DHT22;6813;60.352;15.746;2023-07-09T10:23:34;30.60;65.90
13482;DHT22;6813;60.352;15.746;2023-07-09T10:34:24;31.10;64.50
13482;DHT22;6813;60.352;15.746;2023-07-09T10:37:00;31.10;63.90
13482;DHT22;6813;60.352;15.746;2023-07-09T10:39:47;31.10;63.80
13482;DHT22;6813;60.352;15.746;2023-07-09T10:42:58;31.10;63.30
13482;DHT22;6813;60.352;15.746;2023-07-09T10:45:23;31.00;62.30
13482;DHT22;6813;60.352;15.746;2023-07-09T10:48:04;31.00;59.60
13482;DHT22;6813;60.352;15.746;2023-07-09T10:50:38;30.10;59.70
13482;DHT22;6813;60.352;15.746;2023-07-09T10:53:24;30.10;60.90
13482;DHT22;6813;60.352;15.746;2023-07-09T10:56:14;30.30;61.80
13482;DHT22;6813;60.352;15.746;2023-07-09T11:01:47;30.40;63.30
13482;DHT22;6813;60.352;15.746;2023-07-09T11:04:41;30.00;60.60
13482;DHT22;6813;60.352;15.746;2023-07-09T11:07:13;29.80;62.90
13482;DHT22;6813;60.352;15.746;2023-07-09T11:09:46;30.00;62.40
13482;DHT22;6813;60.352;15.746;2023-07-09T11:12:42;30.10;66.90
13482;DHT22;6813;60.352;15.746;2023-07-09T11:15:15;30.10;66.20
13482;DHT22;6813;60.352;15.746;2023-07-09T11:17:44;30.00;59.00
13482;DHT22;6813;60.352;15.746;2023-07-09T11:20:21;29.60;63.10
13482;DHT22;6813;60.352;15.746;2023-07-09T11:22:54;29.80;58.80
13482;DHT22;6813;60.352;15.746;2023-07-09T11:25:42;30.20;57.20
13482;DHT22;6813;60.352;15.746;2023-07-09T11:28:08;30.40;59.20
13482;DHT22;6813;60.352;15.746;2023-07-09T11:30:46;30.40;57.70
13482;DHT22;6813;60.352;15.746;2023-07-09T11:33:18;30.40;59.10
13482;DHT22;6813;60.352;15.746;2023-07-09T11:35:50;30.30;58.10
13482;DHT22;6813;60.352;15.746;2023-07-09T11:38:24;30.50;58.50
13482;DHT22;6813;60.352;15.746;2023-07-09T11:40:56;30.50;59.40
13482;DHT22;6813;60.352;15.746;2023-07-09T11:43:35;30.40;57.00
13482;DHT22;6813;60.352;15.746;2023-07-09T11:46:18;29.90;55.50
13482;DHT22;6813;60.352;15.746;2023-07-09T11:48:46;29.10;59.70
13482;DHT22;6813;60.352;15.746;2023-07-09T11:51:20;28.90;59.60
13482;DHT22;6813;60.352;15.746;2023-07-09T11:53:51;28.90;59.00
13482;DHT22;6813;60.352;15.746;2023-07-09T11:56:19;28.80;58.10
13482;DHT22;6813;60.352;15.746;2023-07-09T11:58:55;28.60;57.20
13482;DHT22;6813;60.352;15.746;2023-07-09T12:01:27;28.30;62.00
13482;DHT22;6813;60.352;15.746;2023-07-09T12:03:56;28.00;59.70
13482;DHT22;6813;60.352;15.746;2023-07-09T12:06:23;27.90;61.00
13482;DHT22;6813;60.352;15.746;2023-07-09T12:08:50;27.80;58.40
13482;DHT22;6813;60.352;15.746;2023-07-09T12:11:28;28.10;59.30
13482;DHT22;6813;60.352;15.746;2023-07-09T12:14:00;28.10;65.60
13482;DHT22;6813;60.352;15.746;2023-07-09T12:16:47;27.80;59.70
13482;DHT22;6813;60.352;15.746;2023-07-09T12:19:15;27.80;60.70
13482;DHT22;6813;60.352;15.746;2023-07-09T12:21:46;27.70;60.00
13482;DHT22;6813;60.352;15.746;2023-07-09T12:24:28;27.70;59.90
13482;DHT22;6813;60.352;15.746;2023-07-09T12:26:56;28.10;61.90
13482;DHT22;6813;60.352;15.746;2023-07-09T12:29:34;28.40;59.00
13482;DHT22;6813;60.352;15.746;2023-07-09T12:32:09;28.40;64.10
13482;DHT22;6813;60.352;15.746;2023-07-09T12:34:35;28.40;59.20
13482;DHT22;6813;60.352;15.746;2023-07-09T12:37:01;28.50;59.30
13482;DHT22;6813;60.352;15.746;2023-07-09T12:39:29;28.70;57.00
13482;DHT22;6813;60.352;15.746;2023-07-09T12:41:56;28.80;56.70
13482;DHT22;6813;60.352;15.746;2023-07-09T12:44:24;29.00;56.10
13482;DHT22;6813;60.352;15.746;2023-07-09T12:46:52;29.30;57.00
13482;DHT22;6813;60.352;15.746;2023-07-09T12:49:29;29.30;54.30
13482;DHT22;6813;60.352;15.746;2023-07-09T12:52:03;29.50;54.20
13482;DHT22;6813;60.352;15.746;2023-07-09T12:54:30;29.60;52.40
13482;DHT22;6813;60.352;15.746;2023-07-09T12:56:58;29.60;52.20
13482;DHT22;6813;60.352;15.746;2023-07-09T12:59:37;29.40;52.30
13482;DHT22;6813;60.352;15.746;2023-07-09T13:04:44;29.30;49.70
13482;DHT22;6813;60.352;15.746;2023-07-09T13:07:30;29.00;53.00
13482;DHT22;6813;60.352;15.746;2023-07-09T13:10:18;29.10;52.20
13482;DHT22;6813;60.352;15.746;2023-07-09T13:12:50;29.20;52.40
13482;DHT22;6813;60.352;15.746;2023-07-09T13:17:59;29.10;52.40
13482;DHT22;6813;60.352;15.746;2023-07-09T13:20:25;29.00;52.20
13482;DHT22;6813;60.352;15.746;2023-07-09T13:22:51;29.00;51.90
13482;DHT22;6813;60.352;15.746;2023-07-09T13:25:17;28.80;52.60
13482;DHT22;6813;60.352;15.746;2023-07-09T13:27:43;28.80;59.80
13482;DHT22;6813;60.352;15.746;2023-07-09T13:30:10;28.60;62.90
13482;DHT22;6813;60.352;15.746;2023-07-09T13:32:36;27.50;67.20
13482;DHT22;6813;60.352;15.746;2023-07-09T13:35:01;26.30;72.10
13482;DHT22;6813;60.352;15.746;2023-07-09T13:37:29;25.70;72.40
13482;DHT22;6813;60.352;15.746;2023-07-09T13:39:55;25.50;73.90
13482;DHT22;6813;60.352;15.746;2023-07-09T13:42:20;25.20;75.80
13482;DHT22;6813;60.352;15.746;2023-07-09T13:44:46;24.60;76.70
13482;DHT22;6813;60.352;15.746;2023-07-09T13:47:15;24.40;79.80
13482;DHT22;6813;60.352;15.746;2023-07-09T13:49:43;24.40;78.30
13482;DHT22;6813;60.352;15.746;2023-07-09T13:52:18;24.30;79.60
13482;DHT22;6813;60.352;15.746;2023-07-09T13:54:45;24.40;79.20
13482;DHT22;6813;60.352;15.746;2023-07-09T13:57:16;24.20;80.30
13482;DHT22;6813;60.352;15.746;2023-07-09T13:59:42;24.10;80.20
13482;DHT22;6813;60.352;15.746;2023-07-09T14:02:31;23.80;80.60
13482;DHT22;6813;60.352;15.746;2023-07-09T14:04:58;23.70;81.90
13482;DHT22;6813;60.352;15.746;2023-07-09T14:07:30;23.70;81.90
13482;DHT22;6813;60.352;15.746;2023-07-09T14:09:57;23.70;81.90
13482;DHT22;6813;60.352;15.746;2023-07-09T14:12:23;23.70;81.90
13482;DHT22;6813;60.352;15.746;2023-07-09T14:14:51;23.70;81.50
13482;DHT22;6813;60.352;15.746;2023-07-09T14:17:17;23.80;82.50
13482;DHT22;6813;60.352;15.746;2023-07-09T14:19:43;23.80;81.30
13482;DHT22;6813;60.352;15.746;2023-07-09T14:22:33;23.80;81.70
13482;DHT22;6813;60.352;15.746;2023-07-09T14:24:59;23.70;81.70
13482;DHT22;6813;60.352;15.746;2023-07-09T14:27:25;23.80;80.60
13482;DHT22;6813;60.352;15.746;2023-07-09T14:29:52;23.80;80.10
13482;DHT22;6813;60.352;15.746;2023-07-09T14:34:57;23.80;81.30
13482;DHT22;6813;60.352;15.746;2023-07-09T14:37:23;23.80;81.60
13482;DHT22;6813;60.352;15.746;2023-07-09T14:39:49;23.90;81.10
13482;DHT22;6813;60.352;15.746;2023-07-09T14:42:15;23.90;81.40
13482;DHT22;6813;60.352;15.746;2023-07-09T14:44:41;23.90;81.50
13482;DHT22;6813;60.352;15.746;2023-07-09T14:47:16;24.00;80.10
13482;DHT22;6813;60.352;15.746;2023-07-09T14:49:43;23.90;82.10
13482;DHT22;6813;60.352;15.746;2023-07-09T14:52:12;23.90;81.10
13482;DHT22;6813;60.352;15.746;2023-07-09T14:54:39;23.80;83.10
13482;DHT22;6813;60.352;15.746;2023-07-09T14:57:16;23.70;82.40
13482;DHT22;6813;60.352;15.746;2023-07-09T14:59:42;23.70;81.90
13482;DHT22;6813;60.352;15.746;2023-07-09T15:02:25;23.80;82.30
13482;DHT22;6813;60.352;15.746;2023-07-09T15:04:55;23.80;82.10
13482;DHT22;6813;60.352;15.746;2023-07-09T15:07:22;23.90;84.60
13482;DHT22;6813;60.352;15.746;2023-07-09T15:09:47;23.80;85.10
13482;DHT22;6813;60.352;15.746;2023-07-09T15:12:20;23.70;84.40
13482;DHT22;6813;60.352;15.746;2023-07-09T15:14:48;23.70;84.60
13482;DHT22;6813;60.352;15.746;2023-07-09T15:17:14;23.50;84.60
13482;DHT22;6813;60.352;15.746;2023-07-09T15:19:40;23.40;84.40
13482;DHT22;6813;60.352;15.746;2023-07-09T15:22:16;23.40;87.10
13482;DHT22;6813;60.352;15.746;2023-07-09T15:24:43;23.30;86.60
13482;DHT22;6813;60.352;15.746;2023-07-09T15:27:08;23.30;84.90
13482;DHT22;6813;60.352;15.746;2023-07-09T15:29:34;23.20;84.10
13482;DHT22;6813;60.352;15.746;2023-07-09T15:32:00;23.20;86.60
13482;DHT22;6813;60.352;15.746;2023-07-09T15:34:25;23.20;87.50
13482;DHT22;6813;60.352;15.746;2023-07-09T15:36:52;23.20;88.10
13482;DHT22;6813;60.352;15.746;2023-07-09T15:39:19;23.20;88.70
13482;DHT22;6813;60.352;15.746;2023-07-09T15:41:45;23.20;89.50
13482;DHT22;6813;60.352;15.746;2023-07-09T15:44:16;23.10;90.30
13482;DHT22;6813;60.352;15.746;2023-07-09T15:46:52;23.10;90.50
13482;DHT22;6813;60.352;15.746;2023-07-09T15:49:19;23.00;91.70
13482;DHT22;6813;60.352;15.746;2023-07-09T15:51:45;23.10;90.50
13482;DHT22;6813;60.352;15.746;2023-07-09T15:54:29;23.00;91.80
13482;DHT22;6813;60.352;15.746;2023-07-09T15:56:54;23.00;92.20
13482;DHT22;6813;60.352;15.746;2023-07-09T15:59:33;22.90;89.20
13482;DHT22;6813;60.352;15.746;2023-07-09T16:02:01;22.90;91.40
13482;DHT22;6813;60.352;15.746;2023-07-09T16:04:28;22.90;90.70
13482;DHT22;6813;60.352;15.746;2023-07-09T16:06:54;22.90;90.80
13482;DHT22;6813;60.352;15.746;2023-07-09T16:09:20;22.90;90.70
13482;DHT22;6813;60.352;15.746;2023-07-09T16:11:52;22.90;91.30
13482;DHT22;6813;60.352;15.746;2023-07-09T16:16:45;23.00;91.40
13482;DHT22;6813;60.352;15.746;2023-07-09T16:19:17;23.10;92.60
13482;DHT22;6813;60.352;15.746;2023-07-09T16:21:43;23.20;92.00